sensor_id;sensor_type;location;lat;lon;timestamp;pressure;altitude;pressure_sealevel;temperature;humidity
4392;BME280;2210;51.938;8.488;2022-12-07T00:02:43;100458.31;;;4.02;100.00
4392;BME280;2210;51.938;8.488;2022-12-07T00:06:46;100458.75;;;4.05;100.00
4392;BME280;2210;51.938;8.488;2022-12-07T00:10:46;100461.09;;;4.09;100.00
4392;BME280;2210;51.938;8.488;2022-12-07T00:14:52;100455.44;;;4.10;100.00
4392;BME280;2210;51.938;8.488;2022-12-07T00:18:53;100442.28;;;4.14;100.00
4392;BME280;2210;51.938;8.488;2022-12-07T00:22:53;100443.72;;;4.10;100.00
4392;BME280;2210;51.938;8.488;2022-12-07T00:26:53;100447.91;;;4.12;100.00
4392;BME280;2210;51.938;8.488;2022-12-07T00:31:05;100447.91;;;4.12;100.00
4392;BME280;2210;51.938;8.488;2022-12-07T00:35:06;100441.22;;;4.15;100.00
4392;BME280;2210;51.938;8.488;2022-12-07T00:39:07;100441.00;;;4.16;100.00
4392;BME280;2210;51.938;8.488;2022-12-07T00:43:07;100438.28;;;4.16;100.00
4392;BME280;2210;51.938;8.488;2022-12-07T00:47:07;100438.28;;;4.16;100.00
4392;BME280;2210;51.938;8.488;2022-12-07T00:51:09;100429.72;;;4.19;100.00
4392;BME280;2210;51.938;8.488;2022-12-07T00:55:10;100423.03;;;4.22;100.00
4392;BME280;2210;51.938;8.488;2022-12-07T00:59:12;100423.66;;;4.24;100.00
4392;BME280;2210;51.938;8.488;2022-12-07T01:03:16;100417.56;;;4.22;100.00
4392;BME280;2210;51.938;8.488;2022-12-07T01:07:16;100421.59;;;4.26;100.00
4392;BME280;2210;51.938;8.488;2022-12-07T01:11:25;100421.38;;;4.28;100.00
4392;BME280;2210;51.938;8.488;2022-12-07T01:15:28;100411.91;;;4.24;100.00
4392;BME280;2210;51.938;8.488;2022-12-07T01:19:29;100423.66;;;4.24;100.00
4392;BME280;2210;51.938;8.488;2022-12-07T01:23:35;100431.63;;;4.26;100.00
4392;BME280;2210;51.938;8.488;2022-12-07T01:27:42;100436.25;;;4.25;100.00
4392;BME280;2210;51.938;8.488;2022-12-07T01:31:42;100431.44;;;4.27;100.00
4392;BME280;2210;51.938;8.488;2022-12-07T01:35:46;100433.53;;;4.25;100.00
4392;BME280;2210;51.938;8.488;2022-12-07T01:39:50;100441.72;;;4.25;100.00
4392;BME280;2210;51.938;8.488;2022-12-07T01:44:17;100438.53;;;4.21;100.00
4392;BME280;2210;51.938;8.488;2022-12-07T01:48:20;100445.28;;;4.26;100.00
4392;BME280;2210;51.938;8.488;2022-12-07T01:52:28;100437.28;;;4.24;100.00
4392;BME280;2210;51.938;8.488;2022-12-07T01:56:30;100436.25;;;4.25;100.00
4392;BME280;2210;51.938;8.488;2022-12-07T02:00:38;100432.50;;;4.26;100.00
4392;BME280;2210;51.938;8.488;2022-12-07T02:04:39;100426.59;;;4.22;100.00
4392;BME280;2210;51.938;8.488;2022-12-07T02:08:48;100433.34;;;4.27;100.00
4392;BME280;2210;51.938;8.488;2022-12-07T02:13:00;100424.31;;;4.26;100.00
4392;BME280;2210;51.938;8.488;2022-12-07T02:17:37;100423.66;;;4.24;100.00
4392;BME280;2210;51.938;8.488;2022-12-07T02:30:54;100424.75;;;4.30;100.00
4392;BME280;2210;51.938;8.488;2022-12-07T02:39:34;100423.91;;;4.29;100.00
4392;BME280;2210;51.938;8.488;2022-12-07T02:43:58;100419.47;;;4.28;100.00
4392;BME280;2210;51.938;8.488;2022-12-07T02:48:12;100419.75;;;4.33;100.00
4392;BME280;2210;51.938;8.488;2022-12-07T02:52:13;100415.72;;;4.29;100.00
4392;BME280;2210;51.938;8.488;2022-12-07T02:56:27;100420.53;;;4.27;100.00
4392;BME280;2210;51.938;8.488;2022-12-07T03:18:00;100410.16;;;4.16;100.00
4392;BME280;2210;51.938;8.488;2022-12-07T03:22:11;100412.25;;;4.14;100.00
4392;BME280;2210;51.938;8.488;2022-12-07T03:26:14;100410.97;;;4.10;100.00
4392;BME280;2210;51.938;8.488;2022-12-07T03:30:19;100405.09;;;4.13;100.00
4392;BME280;2210;51.938;8.488;2022-12-07T03:39:38;100400.84;;;4.03;100.00
4392;BME280;2210;51.938;8.488;2022-12-07T03:43:46;100400.38;;;4.00;100.00
4392;BME280;2210;51.938;8.488;2022-12-07T03:52:20;100400.00;;;4.03;100.00
4392;BME280;2210;51.938;8.488;2022-12-07T03:56:22;100392.59;;;3.97;100.00
4392;BME280;2210;51.938;8.488;2022-12-07T04:00:33;100402.41;;;3.91;100.00
4392;BME280;2210;51.938;8.488;2022-12-07T04:04:34;100411.00;;;3.88;100.00
4392;BME280;2210;51.938;8.488;2022-12-07T04:08:34;100408.22;;;3.81;100.00
4392;BME280;2210;51.938;8.488;2022-12-07T04:12:37;100404.06;;;3.85;100.00
4392;BME280;2210;51.938;8.488;2022-12-07T04:16:40;100418.66;;;3.78;100.00
4392;BME280;2210;51.938;8.488;2022-12-07T04:20:40;100414.91;;;3.79;100.00
4392;BME280;2210;51.938;8.488;2022-12-07T04:24:44;100416.97;;;3.77;100.00
4392;BME280;2210;51.938;8.488;2022-12-07T04:28:44;100419.41;;;3.71;100.00
4392;BME280;2210;51.938;8.488;2022-12-07T04:32:57;100414.38;;;3.68;100.00
4392;BME280;2210;51.938;8.488;2022-12-07T04:36:57;100410.81;;;3.68;100.00
4392;BME280;2210;51.938;8.488;2022-12-07T04:41:13;100412.66;;;3.67;100.00
4392;BME280;2210;51.938;8.488;2022-12-07T04:45:13;100413.47;;;3.61;100.00
4392;BME280;2210;51.938;8.488;2022-12-07T04:49:17;100411.38;;;3.63;100.00
4392;BME280;2210;51.938;8.488;2022-12-07T04:53:24;100410.47;;;3.56;100.00
4392;BME280;2210;51.938;8.488;2022-12-07T04:57:27;100415.47;;;3.52;100.00
4392;BME280;2210;51.938;8.488;2022-12-07T05:01:28;100414.22;;;3.55;100.00
4392;BME280;2210;51.938;8.488;2022-12-07T05:05:28;100405.03;;;3.56;100.00
4392;BME280;2210;51.938;8.488;2022-12-07T05:09:28;100418.44;;;3.58;100.00
4392;BME280;2210;51.938;8.488;2022-12-07T05:13:28;100409.56;;;3.49;100.00
4392;BME280;2210;51.938;8.488;2022-12-07T05:17:31;100410.34;;;3.43;100.00
4392;BME280;2210;51.938;8.488;2022-12-07T05:21:32;100407.34;;;3.37;100.00
4392;BME280;2210;51.938;8.488;2022-12-07T05:25:33;100418.50;;;3.43;100.00
4392;BME280;2210;51.938;8.488;2022-12-07T05:29:33;100413.25;;;3.41;100.00
4392;BME280;2210;51.938;8.488;2022-12-07T05:33:34;100408.97;;;3.32;100.00
4392;BME280;2210;51.938;8.488;2022-12-07T05:37:34;100411.88;;;3.30;100.00
4392;BME280;2210;51.938;8.488;2022-12-07T05:41:40;100411.81;;;3.24;100.00
4392;BME280;2210;51.938;8.488;2022-12-07T05:45:59;100403.31;;;3.33;100.00
4392;BME280;2210;51.938;8.488;2022-12-07T05:49:59;100398.66;;;3.27;100.00
4392;BME280;2210;51.938;8.488;2022-12-07T05:54:00;100394.50;;;3.31;100.00
4392;BME280;2210;51.938;8.488;2022-12-07T05:58:00;100393.94;;;3.21;100.00
4392;BME280;2210;51.938;8.488;2022-12-07T06:02:19;100397.91;;;3.18;100.00
4392;BME280;2210;51.938;8.488;2022-12-07T06:06:22;100406.66;;;3.14;100.00
4392;BME280;2210;51.938;8.488;2022-12-07T06:10:23;100405.38;;;3.10;100.00
4392;BME280;2210;51.938;8.488;2022-12-07T06:14:26;100402.91;;;3.15;100.00
4392;BME280;2210;51.938;8.488;2022-12-07T06:18:26;100402.25;;;3.13;100.00
4392;BME280;2210;51.938;8.488;2022-12-07T06:22:26;100392.38;;;3.12;100.00
4392;BME280;2210;51.938;8.488;2022-12-07T06:26:33;100389.09;;;3.16;100.00
4392;BME280;2210;51.938;8.488;2022-12-07T06:30:36;100394.91;;;3.13;100.00
4392;BME280;2210;51.938;8.488;2022-12-07T06:34:36;100397.38;;;3.08;100.00
4392;BME280;2210;51.938;8.488;2022-12-07T06:38:36;100393.69;;;3.16;100.00
4392;BME280;2210;51.938;8.488;2022-12-07T06:42:43;100397.47;;;3.15;100.00
4392;BME280;2210;51.938;8.488;2022-12-07T06:46:46;100397.63;;;3.13;100.00
4392;BME280;2210;51.938;8.488;2022-12-07T06:50:50;100391.16;;;3.14;100.00
4392;BME280;2210;51.938;8.488;2022-12-07T06:54:50;100391.06;;;3.08;100.00
4392;BME280;2210;51.938;8.488;2022-12-07T06:58:59;100396.53;;;3.08;100.00
4392;BME280;2210;51.938;8.488;2022-12-07T07:03:00;100404.16;;;2.97;100.00
4392;BME280;2210;51.938;8.488;2022-12-07T07:07:00;100412.22;;;3.06;100.00
4392;BME280;2210;51.938;8.488;2022-12-07T07:11:00;100414.66;;;3.00;100.00
4392;BME280;2210;51.938;8.488;2022-12-07T07:15:01;100423.22;;;2.97;100.00
4392;BME280;2210;51.938;8.488;2022-12-07T07:19:01;100424.06;;;2.98;100.00
4392;BME280;2210;51.938;8.488;2022-12-07T07:23:01;100413.47;;;2.88;100.00
4392;BME280;2210;51.938;8.488;2022-12-07T07:27:05;100413.56;;;2.95;100.00
4392;BME280;2210;51.938;8.488;2022-12-07T07:31:05;100423.34;;;2.89;100.00
4392;BME280;2210;51.938;8.488;2022-12-07T07:35:06;100427.38;;;2.93;100.00
4392;BME280;2210;51.938;8.488;2022-12-07T07:39:06;100429.22;;;2.93;100.00
4392;BME280;2210;51.938;8.488;2022-12-07T07:43:18;100429.50;;;2.98;100.00
4392;BME280;2210;51.938;8.488;2022-12-07T07:47:31;100434.59;;;2.86;100.00
4392;BME280;2210;51.938;8.488;2022-12-07T07:51:34;100438.09;;;2.80;100.00
4392;BME280;2210;51.938;8.488;2022-12-07T07:59:46;100438.81;;;2.74;100.00
4392;BME280;2210;51.938;8.488;2022-12-07T08:03:47;100443.88;;;2.77;100.00
4392;BME280;2210;51.938;8.488;2022-12-07T08:07:47;100436.69;;;2.69;100.00
4392;BME280;2210;51.938;8.488;2022-12-07T08:11:48;100439.41;;;2.84;100.00
4392;BME280;2210;51.938;8.488;2022-12-07T08:15:48;100435.44;;;2.86;100.00
4392;BME280;2210;51.938;8.488;2022-12-07T08:19:54;100440.81;;;2.80;100.00
4392;BME280;2210;51.938;8.488;2022-12-07T08:23:57;100435.25;;;2.88;100.00
4392;BME280;2210;51.938;8.488;2022-12-07T08:28:04;100438.63;;;2.90;100.00
4392;BME280;2210;51.938;8.488;2022-12-07T08:32:04;100446.16;;;2.88;100.00
4392;BME280;2210;51.938;8.488;2022-12-07T08:36:17;100445.28;;;2.87;100.00
4392;BME280;2210;51.938;8.488;2022-12-07T08:40:20;100446.78;;;2.75;100.00
4392;BME280;2210;51.938;8.488;2022-12-07T08:44:21;100443.53;;;2.80;100.00
4392;BME280;2210;51.938;8.488;2022-12-07T08:48:25;100453.56;;;2.79;100.00
4392;BME280;2210;51.938;8.488;2022-12-07T08:52:25;100446.34;;;2.86;100.00
4392;BME280;2210;51.938;8.488;2022-12-07T08:56:32;100444.06;;;2.90;100.00
4392;BME280;2210;51.938;8.488;2022-12-07T09:00:38;100441.81;;;2.94;100.00
4392;BME280;2210;51.938;8.488;2022-12-07T09:04:38;100435.72;;;2.92;100.00
4392;BME280;2210;51.938;8.488;2022-12-07T09:08:42;100444.06;;;2.90;100.00
4392;BME280;2210;51.938;8.488;2022-12-07T09:12:49;100442.19;;;3.06;100.00
4392;BME280;2210;51.938;8.488;2022-12-07T09:16:49;100440.09;;;3.08;100.00
4392;BME280;2210;51.938;8.488;2022-12-07T09:20:50;100450.34;;;3.06;100.00
4392;BME280;2210;51.938;8.488;2022-12-07T09:24:54;100447.25;;;3.09;100.00
4392;BME280;2210;51.938;8.488;2022-12-07T09:28:54;100450.63;;;3.11;100.00
4392;BME280;2210;51.938;8.488;2022-12-07T09:32:57;100449.03;;;3.16;100.00
4392;BME280;2210;51.938;8.488;2022-12-07T09:37:01;100454.97;;;2.90;100.00
4392;BME280;2210;51.938;8.488;2022-12-07T09:41:07;100459.84;;;2.95;100.00
4392;BME280;2210;51.938;8.488;2022-12-07T09:45:12;100459.56;;;3.04;100.00
4392;BME280;2210;51.938;8.488;2022-12-07T09:49:21;100457.22;;;3.01;100.00
4392;BME280;2210;51.938;8.488;2022-12-07T09:53:26;100457.22;;;3.01;100.00
4392;BME280;2210;51.938;8.488;2022-12-07T09:57:31;100460.66;;;3.10;100.00
4392;BME280;2210;51.938;8.488;2022-12-07T10:01:32;100457.75;;;3.12;100.00
4392;BME280;2210;51.938;8.488;2022-12-07T10:05:40;100451.16;;;3.21;100.00
4392;BME280;2210;51.938;8.488;2022-12-07T10:09:43;100444.56;;;3.30;100.00
4392;BME280;2210;51.938;8.488;2022-12-07T10:13:48;100445.25;;;3.32;100.00
4392;BME280;2210;51.938;8.488;2022-12-07T10:17:52;100444.66;;;3.37;100.00
4392;BME280;2210;51.938;8.488;2022-12-07T10:22:15;100437.66;;;3.49;100.00
4392;BME280;2210;51.938;8.488;2022-12-07T10:30:32;100424.81;;;3.65;100.00
4392;BME280;2210;51.938;8.488;2022-12-07T10:34:37;100423.97;;;3.64;100.00
4392;BME280;2210;51.938;8.488;2022-12-07T10:38:44;100411.91;;;3.74;100.00
4392;BME280;2210;51.938;8.488;2022-12-07T10:43:15;100415.38;;;3.89;100.00
4392;BME280;2210;51.938;8.488;2022-12-07T10:47:34;100400.13;;;3.95;100.00
4392;BME280;2210;51.938;8.488;2022-12-07T10:51:59;100403.91;;;3.94;100.00
4392;BME280;2210;51.938;8.488;2022-12-07T10:56:23;100390.53;;;4.05;100.00
4392;BME280;2210;51.938;8.488;2022-12-07T11:05:34;100396.88;;;4.06;100.00
4392;BME280;2210;51.938;8.488;2022-12-07T11:09:52;100390.44;;;4.14;100.00
4392;BME280;2210;51.938;8.488;2022-12-07T11:14:28;100393.16;;;4.14;100.00
4392;BME280;2210;51.938;8.488;2022-12-07T11:27:37;100372.06;;;4.29;100.00
4392;BME280;2210;51.938;8.488;2022-12-07T11:40:36;100350.94;;;4.45;100.00
4392;BME280;2210;51.938;8.488;2022-12-07T11:49:15;100353.28;;;4.48;100.00
4392;BME280;2210;51.938;8.488;2022-12-07T11:53:49;100353.09;;;4.56;100.00
4392;BME280;2210;51.938;8.488;2022-12-07T12:02:27;100327.56;;;4.77;100.00
4392;BME280;2210;51.938;8.488;2022-12-07T12:06:31;100326.03;;;4.68;100.00
4392;BME280;2210;51.938;8.488;2022-12-07T12:19:40;100321.69;;;4.87;100.00
4392;BME280;2210;51.938;8.488;2022-12-07T12:24:04;100326.78;;;4.90;100.00
4392;BME280;2210;51.938;8.488;2022-12-07T12:28:39;100327.00;;;4.88;100.00
4392;BME280;2210;51.938;8.488;2022-12-07T12:32:42;100316.88;;;4.82;100.00
4392;BME280;2210;51.938;8.488;2022-12-07T12:36:48;100314.38;;;4.87;100.00
4392;BME280;2210;51.938;8.488;2022-12-07T12:40:48;100310.16;;;4.85;100.00
4392;BME280;2210;51.938;8.488;2022-12-07T12:49:41;100310.97;;;4.79;100.00
4392;BME280;2210;51.938;8.488;2022-12-07T12:53:46;100299.66;;;4.82;100.00
4392;BME280;2210;51.938;8.488;2022-12-07T12:58:22;100305.31;;;4.87;100.00
4392;BME280;2210;51.938;8.488;2022-12-07T13:02:36;100295.84;;;4.83;100.00
4392;BME280;2210;51.938;8.488;2022-12-07T13:06:41;100294.59;;;4.85;100.00
4392;BME280;2210;51.938;8.488;2022-12-07T13:10:44;100280.72;;;4.87;100.00
4392;BME280;2210;51.938;8.488;2022-12-07T13:14:54;100279.91;;;4.93;100.00
4392;BME280;2210;51.938;8.488;2022-12-07T13:18:54;100291.28;;;4.90;100.00
4392;BME280;2210;51.938;8.488;2022-12-07T13:22:58;100293.59;;;5.00;100.00
4392;BME280;2210;51.938;8.488;2022-12-07T13:27:14;100291.28;;;4.97;100.00
4392;BME280;2210;51.938;8.488;2022-12-07T13:31:59;100286.44;;;4.92;100.00
4392;BME280;2210;51.938;8.488;2022-12-07T13:36:00;100282.41;;;4.88;100.00
4392;BME280;2210;51.938;8.488;2022-12-07T13:40:17;100275.28;;;4.80;100.00
4392;BME280;2210;51.938;8.488;2022-12-07T13:44:19;100273.38;;;4.81;100.00
4392;BME280;2210;51.938;8.488;2022-12-07T13:52:43;100269.81;;;4.87;100.00
4392;BME280;2210;51.938;8.488;2022-12-07T13:56:50;100272.38;;;4.95;100.00
4392;BME280;2210;51.938;8.488;2022-12-07T14:00:54;100274.88;;;4.90;100.00
4392;BME280;2210;51.938;8.488;2022-12-07T14:05:24;100263.09;;;4.89;100.00
4392;BME280;2210;51.938;8.488;2022-12-07T14:09:26;100263.50;;;4.86;100.00
4392;BME280;2210;51.938;8.488;2022-12-07T14:13:37;100258.25;;;4.85;100.00
4392;BME280;2210;51.938;8.488;2022-12-07T14:17:53;100255.75;;;4.90;100.00
4392;BME280;2210;51.938;8.488;2022-12-07T14:22:08;100262.69;;;4.86;100.00
4392;BME280;2210;51.938;8.488;2022-12-07T14:30:17;100251.28;;;4.76;100.00
4392;BME280;2210;51.938;8.488;2022-12-07T14:34:21;100250.03;;;4.71;100.00
4392;BME280;2210;51.938;8.488;2022-12-07T14:38:22;100250.84;;;4.72;100.00
4392;BME280;2210;51.938;8.488;2022-12-07T14:42:24;100245.59;;;4.64;100.00
4392;BME280;2210;51.938;8.488;2022-12-07T14:46:26;100242.84;;;4.50;100.00
4392;BME280;2210;51.938;8.488;2022-12-07T14:50:26;100241.75;;;4.45;100.00
4392;BME280;2210;51.938;8.488;2022-12-07T14:54:30;100237.75;;;4.47;100.00
4392;BME280;2210;51.938;8.488;2022-12-07T14:58:31;100242.38;;;4.47;100.00
4392;BME280;2210;51.938;8.488;2022-12-07T15:02:32;100241.97;;;4.50;100.00
4392;BME280;2210;51.938;8.488;2022-12-07T15:06:33;100245.13;;;4.47;100.00
4392;BME280;2210;51.938;8.488;2022-12-07T15:10:33;100240.28;;;4.49;100.00
4392;BME280;2210;51.938;8.488;2022-12-07T15:14:34;100236.94;;;4.47;100.00
4392;BME280;2210;51.938;8.488;2022-12-07T15:18:34;100240.91;;;4.44;100.00
4392;BME280;2210;51.938;8.488;2022-12-07T15:22:34;100245.31;;;4.38;100.00
4392;BME280;2210;51.938;8.488;2022-12-07T15:26:34;100242.34;;;4.33;100.00
4392;BME280;2210;51.938;8.488;2022-12-07T15:30:37;100246.31;;;4.31;100.00
4392;BME280;2210;51.938;8.488;2022-12-07T15:34:37;100241.47;;;4.26;100.00
4392;BME280;2210;51.938;8.488;2022-12-07T15:38:37;100235.16;;;4.26;100.00
4392;BME280;2210;51.938;8.488;2022-12-07T15:42:38;100228.41;;;4.21;100.00
4392;BME280;2210;51.938;8.488;2022-12-07T15:46:40;100219.81;;;4.18;100.00
4392;BME280;2210;51.938;8.488;2022-12-07T15:50:41;100221.91;;;4.16;100.00
4392;BME280;2210;51.938;8.488;2022-12-07T15:54:41;100228.19;;;4.16;100.00
4392;BME280;2210;51.938;8.488;2022-12-07T15:58:41;100224.19;;;4.12;100.00
4392;BME280;2210;51.938;8.488;2022-12-07T16:02:42;100220.00;;;4.10;100.00
4392;BME280;2210;51.938;8.488;2022-12-07T16:06:42;100214.69;;;4.01;100.00
4392;BME280;2210;51.938;8.488;2022-12-07T16:10:42;100219.97;;;4.03;100.00
4392;BME280;2210;51.938;8.488;2022-12-07T16:14:43;100219.91;;;3.96;100.00
4392;BME280;2210;51.938;8.488;2022-12-07T16:18:45;100210.22;;;3.87;100.00
4392;BME280;2210;51.938;8.488;2022-12-07T16:22:46;100215.22;;;3.83;100.00
4392;BME280;2210;51.938;8.488;2022-12-07T16:26:46;100206.22;;;3.83;100.00
4392;BME280;2210;51.938;8.488;2022-12-07T16:30:46;100207.25;;;3.82;100.00
4392;BME280;2210;51.938;8.488;2022-12-07T16:34:46;100203.84;;;3.73;100.00
4392;BME280;2210;51.938;8.488;2022-12-07T16:38:48;100205.50;;;3.74;100.00
4392;BME280;2210;51.938;8.488;2022-12-07T16:42:48;100198.81;;;3.77;100.00
4392;BME280;2210;51.938;8.488;2022-12-07T16:46:48;100203.84;;;3.73;100.00
4392;BME280;2210;51.938;8.488;2022-12-07T16:50:49;100203.66;;;3.75;100.00
4392;BME280;2210;51.938;8.488;2022-12-07T16:54:49;100192.50;;;3.69;100.00
4392;BME280;2210;51.938;8.488;2022-12-07T16:58:49;100194.56;;;3.67;100.00
4392;BME280;2210;51.938;8.488;2022-12-07T17:02:59;100185.75;;;3.65;100.00
4392;BME280;2210;51.938;8.488;2022-12-07T17:07:05;100189.94;;;3.61;100.00
4392;BME280;2210;51.938;8.488;2022-12-07T17:11:44;100187.44;;;3.66;100.00
4392;BME280;2210;51.938;8.488;2022-12-07T17:16:01;100178.78;;;3.56;100.00
4392;BME280;2210;51.938;8.488;2022-12-07T17:20:02;100175.22;;;3.56;100.00
4392;BME280;2210;51.938;8.488;2022-12-07T17:24:06;100171.47;;;3.63;100.00
4392;BME280;2210;51.938;8.488;2022-12-07T17:28:07;100158.94;;;3.76;100.00
4392;BME280;2210;51.938;8.488;2022-12-07T17:32:07;100157.22;;;3.61;100.00
4392;BME280;2210;51.938;8.488;2022-12-07T17:36:12;100161.59;;;3.56;100.00
4392;BME280;2210;51.938;8.488;2022-12-07T17:40:16;100161.81;;;3.61;100.00
4392;BME280;2210;51.938;8.488;2022-12-07T17:44:18;100159.72;;;3.63;100.00
4392;BME280;2210;51.938;8.488;2022-12-07T17:48:20;100159.31;;;3.66;100.00
4392;BME280;2210;51.938;8.488;2022-12-07T17:52:20;100153.91;;;3.72;100.00
4392;BME280;2210;51.938;8.488;2022-12-07T17:56:49;100149.31;;;3.80;100.00
4392;BME280;2210;51.938;8.488;2022-12-07T18:01:01;100137.56;;;3.72;100.00
4392;BME280;2210;51.938;8.488;2022-12-07T18:05:22;100143.84;;;3.66;100.00
4392;BME280;2210;51.938;8.488;2022-12-07T18:09:22;100133.97;;;3.65;100.00
4392;BME280;2210;51.938;8.488;2022-12-07T18:13:23;100135.25;;;3.69;100.00
4392;BME280;2210;51.938;8.488;2022-12-07T18:17:38;100128.50;;;3.65;100.00
4392;BME280;2210;51.938;8.488;2022-12-07T18:21:39;100135.00;;;3.64;100.00
4392;BME280;2210;51.938;8.488;2022-12-07T18:25:39;100121.38;;;3.64;100.00
4392;BME280;2210;51.938;8.488;2022-12-07T18:29:42;100129.53;;;3.64;100.00
4392;BME280;2210;51.938;8.488;2022-12-07T18:33:55;100133.34;;;3.70;100.00
4392;BME280;2210;51.938;8.488;2022-12-07T18:37:55;100123.31;;;3.70;100.00
4392;BME280;2210;51.938;8.488;2022-12-07T18:41:59;100130.03;;;3.75;100.00
4392;BME280;2210;51.938;8.488;2022-12-07T18:45:59;100132.97;;;3.73;100.00
4392;BME280;2210;51.938;8.488;2022-12-07T18:50:00;100124.13;;;3.71;100.00
4392;BME280;2210;51.938;8.488;2022-12-07T18:54:00;100117.44;;;3.74;100.00
4392;BME280;2210;51.938;8.488;2022-12-07T18:58:01;100118.47;;;3.72;100.00
4392;BME280;2210;51.938;8.488;2022-12-07T19:02:01;100110.69;;;3.69;100.00
4392;BME280;2210;51.938;8.488;2022-12-07T19:06:08;100116.38;;;3.68;100.00
4392;BME280;2210;51.938;8.488;2022-12-07T19:10:14;100114.47;;;3.68;100.00
4392;BME280;2210;51.938;8.488;2022-12-07T19:14:36;100112.56;;;3.62;100.00
4392;BME280;2210;51.938;8.488;2022-12-07T19:18:37;100106.47;;;3.60;100.00
4392;BME280;2210;51.938;8.488;2022-12-07T19:22:37;100115.28;;;3.62;100.00
4392;BME280;2210;51.938;8.488;2022-12-07T19:26:40;100113.59;;;3.61;100.00
4392;BME280;2210;51.938;8.488;2022-12-07T19:30:41;100108.78;;;3.63;100.00
4392;BME280;2210;51.938;8.488;2022-12-07T19:34:47;100105.44;;;3.61;100.00
4392;BME280;2210;51.938;8.488;2022-12-07T19:38:49;100104.38;;;3.62;100.00
4392;BME280;2210;51.938;8.488;2022-12-07T19:42:56;100106.44;;;3.53;100.00
4392;BME280;2210;51.938;8.488;2022-12-07T19:46:57;100105.84;;;3.58;100.00
4392;BME280;2210;51.938;8.488;2022-12-07T19:51:05;100106.47;;;3.60;100.00
4392;BME280;2210;51.938;8.488;2022-12-07T19:55:17;100097.06;;;3.69;100.00
4392;BME280;2210;51.938;8.488;2022-12-07T19:59:26;100092.63;;;3.62;100.00
4392;BME280;2210;51.938;8.488;2022-12-07T20:03:31;100088.03;;;3.62;100.00
4392;BME280;2210;51.938;8.488;2022-12-07T20:07:40;100069.53;;;3.58;100.00
4392;BME280;2210;51.938;8.488;2022-12-07T20:11:40;100060.31;;;3.59;100.00
4392;BME280;2210;51.938;8.488;2022-12-07T20:16:11;100063.25;;;3.57;100.00
4392;BME280;2210;51.938;8.488;2022-12-07T20:20:12;100048.75;;;3.43;100.00
4392;BME280;2210;51.938;8.488;2022-12-07T20:24:18;100046.84;;;3.44;100.00
4392;BME280;2210;51.938;8.488;2022-12-07T20:28:19;100039.69;;;3.43;100.00
4392;BME280;2210;51.938;8.488;2022-12-07T20:32:20;100041.81;;;3.41;100.00
4392;BME280;2210;51.938;8.488;2022-12-07T20:36:26;100039.94;;;3.48;100.00
4392;BME280;2210;51.938;8.488;2022-12-07T20:40:26;100041.81;;;3.41;100.00
4392;BME280;2210;51.938;8.488;2022-12-07T20:44:27;100043.47;;;3.42;100.00
4392;BME280;2210;51.938;8.488;2022-12-07T20:48:30;100042.63;;;3.41;100.00
4392;BME280;2210;51.938;8.488;2022-12-07T20:52:30;100035.28;;;3.42;100.00
4392;BME280;2210;51.938;8.488;2022-12-07T20:56:33;100038.03;;;3.48;100.00
4392;BME280;2210;51.938;8.488;2022-12-07T21:00:35;100025.88;;;3.44;100.00
4392;BME280;2210;51.938;8.488;2022-12-07T21:04:40;100030.25;;;3.38;100.00
4392;BME280;2210;51.938;8.488;2022-12-07T21:08:48;100029.63;;;3.36;100.00
4392;BME280;2210;51.938;8.488;2022-12-07T21:12:48;100027.31;;;3.40;100.00
4392;BME280;2210;51.938;8.488;2022-12-07T21:16:48;100024.38;;;3.42;100.00
4392;BME280;2210;51.938;8.488;2022-12-07T21:20:52;100020.22;;;3.46;100.00
4392;BME280;2210;51.938;8.488;2022-12-07T21:24:52;100018.94;;;3.42;100.00
4392;BME280;2210;51.938;8.488;2022-12-07T21:28:53;100032.19;;;3.45;100.00
4392;BME280;2210;51.938;8.488;2022-12-07T21:32:53;100033.84;;;3.46;100.00
4392;BME280;2210;51.938;8.488;2022-12-07T21:36:54;100023.75;;;3.40;100.00
4392;BME280;2210;51.938;8.488;2022-12-07T21:40:54;100019.13;;;3.33;100.00
4392;BME280;2210;51.938;8.488;2022-12-07T21:45:09;100023.53;;;3.34;100.00
4392;BME280;2210;51.938;8.488;2022-12-07T21:49:16;100024.97;;;3.30;100.00
4392;BME280;2210;51.938;8.488;2022-12-07T21:53:22;100021.84;;;3.33;100.00
4392;BME280;2210;51.938;8.488;2022-12-07T21:57:23;100015.78;;;3.31;100.00
4392;BME280;2210;51.938;8.488;2022-12-07T22:01:28;100018.50;;;3.31;100.00
4392;BME280;2210;51.938;8.488;2022-12-07T22:05:32;100004.25;;;3.36;100.00
4392;BME280;2210;51.938;8.488;2022-12-07T22:09:36;99999.00;;;3.34;100.00
4392;BME280;2210;51.938;8.488;2022-12-07T22:13:37;99994.81;;;3.32;100.00
4392;BME280;2210;51.938;8.488;2022-12-07T22:17:55;99994.34;;;3.28;100.00
4392;BME280;2210;51.938;8.488;2022-12-07T22:22:13;99996.88;;;3.23;100.00
4392;BME280;2210;51.938;8.488;2022-12-07T22:26:19;99997.06;;;3.28;100.00
4392;BME280;2210;51.938;8.488;2022-12-07T22:30:23;99997.06;;;3.28;100.00
4392;BME280;2210;51.938;8.488;2022-12-07T22:34:23;99996.03;;;3.29;100.00
4392;BME280;2210;51.938;8.488;2022-12-07T22:38:27;99991.41;;;3.23;100.00
4392;BME280;2210;51.938;8.488;2022-12-07T22:42:28;99989.31;;;3.25;100.00
4392;BME280;2210;51.938;8.488;2022-12-07T22:46:28;99981.16;;;3.25;100.00
4392;BME280;2210;51.938;8.488;2022-12-07T22:50:28;99979.91;;;3.28;100.00
4392;BME280;2210;51.938;8.488;2022-12-07T22:54:29;99968.78;;;3.23;100.00
4392;BME280;2210;51.938;8.488;2022-12-07T22:58:29;99958.94;;;3.28;100.00
4392;BME280;2210;51.938;8.488;2022-12-07T23:02:32;99956.00;;;3.23;100.00
4392;BME280;2210;51.938;8.488;2022-12-07T23:06:33;99962.69;;;3.20;100.00
4392;BME280;2210;51.938;8.488;2022-12-07T23:10:36;99949.50;;;3.24;100.00
4392;BME280;2210;51.938;8.488;2022-12-07T23:14:36;99949.50;;;3.24;100.00
4392;BME280;2210;51.938;8.488;2022-12-07T23:18:40;99941.53;;;3.23;100.00
4392;BME280;2210;51.938;8.488;2022-12-07T23:22:44;99940.28;;;3.25;100.00
4392;BME280;2210;51.938;8.488;2022-12-07T23:26:51;99950.56;;;3.23;100.00
4392;BME280;2210;51.938;8.488;2022-12-07T23:30:51;99936.28;;;3.21;100.00
4392;BME280;2210;51.938;8.488;2022-12-07T23:34:51;99936.53;;;3.26;100.00
4392;BME280;2210;51.938;8.488;2022-12-07T23:38:54;99935.03;;;3.24;100.00
4392;BME280;2210;51.938;8.488;2022-12-07T23:42:56;99933.16;;;3.24;100.00